sensor_id;sensor_type;location;lat;lon;timestamp;temperature;humidity
68480;DHT22;55469;48.934;12.050;2023-04-25T00:01:05;12.70;87.70
68480;DHT22;55469;48.934;12.050;2023-04-25T00:03:32;12.60;87.60
68480;DHT22;55469;48.934;12.050;2023-04-25T00:05:58;12.60;87.60
68480;DHT22;55469;48.934;12.050;2023-04-25T00:08:29;12.70;87.70
68480;DHT22;55469;48.934;12.050;2023-04-25T00:10:58;12.60;87.70
68480;DHT22;55469;48.934;12.050;2023-04-25T00:13:25;12.60;87.70
68480;DHT22;55469;48.934;12.050;2023-04-25T00:15:52;12.60;87.80
68480;DHT22;55469;48.934;12.050;2023-04-25T00:18:22;12.60;87.90
68480;DHT22;55469;48.934;12.050;2023-04-25T00:20:47;12.60;87.90
68480;DHT22;55469;48.934;12.050;2023-04-25T00:23:14;12.60;87.90
68480;DHT22;55469;48.934;12.050;2023-04-25T00:25:50;12.50;87.80
68480;DHT22;55469;48.934;12.050;2023-04-25T00:28:16;12.50;88.00
68480;DHT22;55469;48.934;12.050;2023-04-25T00:30:43;12.50;88.00
68480;DHT22;55469;48.934;12.050;2023-04-25T00:33:09;12.50;88.00
68480;DHT22;55469;48.934;12.050;2023-04-25T00:35:35;12.50;88.00
68480;DHT22;55469;48.934;12.050;2023-04-25T00:38:01;12.50;88.10
68480;DHT22;55469;48.934;12.050;2023-04-25T00:40:28;12.50;88.10
68480;DHT22;55469;48.934;12.050;2023-04-25T00:42:54;12.50;88.10
68480;DHT22;55469;48.934;12.050;2023-04-25T00:45:20;12.40;88.00
68480;DHT22;55469;48.934;12.050;2023-04-25T00:47:46;12.50;88.20
68480;DHT22;55469;48.934;12.050;2023-04-25T00:50:13;12.40;88.10
68480;DHT22;55469;48.934;12.050;2023-04-25T00:52:41;12.40;88.20
68480;DHT22;55469;48.934;12.050;2023-04-25T00:55:10;12.30;88.30
68480;DHT22;55469;48.934;12.050;2023-04-25T00:57:37;12.30;88.30
68480;DHT22;55469;48.934;12.050;2023-04-25T01:00:05;12.40;88.40
68480;DHT22;55469;48.934;12.050;2023-04-25T01:02:33;12.40;88.40
68480;DHT22;55469;48.934;12.050;2023-04-25T01:04:59;12.30;88.30
68480;DHT22;55469;48.934;12.050;2023-04-25T01:07:25;12.30;88.40
68480;DHT22;55469;48.934;12.050;2023-04-25T01:09:54;12.30;88.40
68480;DHT22;55469;48.934;12.050;2023-04-25T01:12:20;12.30;88.40
68480;DHT22;55469;48.934;12.050;2023-04-25T01:14:46;12.30;88.50
68480;DHT22;55469;48.934;12.050;2023-04-25T01:17:12;12.30;88.40
68480;DHT22;55469;48.934;12.050;2023-04-25T01:19:38;12.20;88.50
68480;DHT22;55469;48.934;12.050;2023-04-25T01:22:04;12.20;88.50
68480;DHT22;55469;48.934;12.050;2023-04-25T01:24:32;12.20;88.60
68480;DHT22;55469;48.934;12.050;2023-04-25T01:26:59;12.20;88.70
68480;DHT22;55469;48.934;12.050;2023-04-25T01:29:27;12.20;88.80
68480;DHT22;55469;48.934;12.050;2023-04-25T01:31:53;12.20;88.80
68480;DHT22;55469;48.934;12.050;2023-04-25T01:34:20;12.20;88.70
68480;DHT22;55469;48.934;12.050;2023-04-25T01:36:49;12.10;88.70
68480;DHT22;55469;48.934;12.050;2023-04-25T01:39:16;12.10;88.70
68480;DHT22;55469;48.934;12.050;2023-04-25T01:41:43;12.10;88.70
68480;DHT22;55469;48.934;12.050;2023-04-25T01:44:08;12.10;88.60
68480;DHT22;55469;48.934;12.050;2023-04-25T01:46:34;12.10;88.60
68480;DHT22;55469;48.934;12.050;2023-04-25T01:49:01;12.10;88.50
68480;DHT22;55469;48.934;12.050;2023-04-25T01:51:27;12.10;88.60
68480;DHT22;55469;48.934;12.050;2023-04-25T01:53:54;12.10;88.70
68480;DHT22;55469;48.934;12.050;2023-04-25T01:56:20;12.10;88.80
68480;DHT22;55469;48.934;12.050;2023-04-25T01:58:46;12.10;88.80
68480;DHT22;55469;48.934;12.050;2023-04-25T02:01:12;12.00;88.70
68480;DHT22;55469;48.934;12.050;2023-04-25T02:03:37;12.00;88.80
68480;DHT22;55469;48.934;12.050;2023-04-25T02:06:03;12.00;88.80
68480;DHT22;55469;48.934;12.050;2023-04-25T02:08:29;12.00;88.70
68480;DHT22;55469;48.934;12.050;2023-04-25T02:10:55;12.00;88.80
68480;DHT22;55469;48.934;12.050;2023-04-25T02:13:21;12.00;88.80
68480;DHT22;55469;48.934;12.050;2023-04-25T02:15:47;12.00;88.80
68480;DHT22;55469;48.934;12.050;2023-04-25T02:18:12;12.00;88.80
68480;DHT22;55469;48.934;12.050;2023-04-25T02:20:38;12.00;88.80
68480;DHT22;55469;48.934;12.050;2023-04-25T02:23:04;12.00;88.80
68480;DHT22;55469;48.934;12.050;2023-04-25T02:25:29;11.90;88.80
68480;DHT22;55469;48.934;12.050;2023-04-25T02:27:55;11.90;89.00
68480;DHT22;55469;48.934;12.050;2023-04-25T02:30:21;11.90;88.80
68480;DHT22;55469;48.934;12.050;2023-04-25T02:32:46;11.90;88.80
68480;DHT22;55469;48.934;12.050;2023-04-25T02:35:12;11.90;88.90
68480;DHT22;55469;48.934;12.050;2023-04-25T02:37:39;11.90;88.90
68480;DHT22;55469;48.934;12.050;2023-04-25T02:40:06;11.90;88.90
68480;DHT22;55469;48.934;12.050;2023-04-25T02:42:32;11.90;88.80
68480;DHT22;55469;48.934;12.050;2023-04-25T02:44:58;11.90;89.00
68480;DHT22;55469;48.934;12.050;2023-04-25T02:47:24;11.90;89.10
68480;DHT22;55469;48.934;12.050;2023-04-25T02:49:49;11.90;88.90
68480;DHT22;55469;48.934;12.050;2023-04-25T02:52:15;11.80;88.90
68480;DHT22;55469;48.934;12.050;2023-04-25T02:54:41;11.80;88.90
68480;DHT22;55469;48.934;12.050;2023-04-25T02:57:07;11.80;88.80
68480;DHT22;55469;48.934;12.050;2023-04-25T02:59:33;11.80;88.90
68480;DHT22;55469;48.934;12.050;2023-04-25T03:01:59;11.80;88.90
68480;DHT22;55469;48.934;12.050;2023-04-25T03:04:25;11.80;89.00
68480;DHT22;55469;48.934;12.050;2023-04-25T03:06:51;11.80;89.00
68480;DHT22;55469;48.934;12.050;2023-04-25T03:09:17;11.80;89.00
68480;DHT22;55469;48.934;12.050;2023-04-25T03:11:44;11.80;89.20
68480;DHT22;55469;48.934;12.050;2023-04-25T03:14:10;11.70;89.00
68480;DHT22;55469;48.934;12.050;2023-04-25T03:16:36;11.70;89.00
68480;DHT22;55469;48.934;12.050;2023-04-25T03:19:03;11.70;89.10
68480;DHT22;55469;48.934;12.050;2023-04-25T03:21:29;11.80;89.00
68480;DHT22;55469;48.934;12.050;2023-04-25T03:23:58;11.70;89.10
68480;DHT22;55469;48.934;12.050;2023-04-25T03:26:24;11.70;89.10
68480;DHT22;55469;48.934;12.050;2023-04-25T03:28:49;11.70;89.10
68480;DHT22;55469;48.934;12.050;2023-04-25T03:31:15;11.70;89.10
68480;DHT22;55469;48.934;12.050;2023-04-25T03:33:41;11.70;89.20
68480;DHT22;55469;48.934;12.050;2023-04-25T03:36:07;11.70;89.20
68480;DHT22;55469;48.934;12.050;2023-04-25T03:38:33;11.60;89.10
68480;DHT22;55469;48.934;12.050;2023-04-25T03:40:59;11.60;89.20
68480;DHT22;55469;48.934;12.050;2023-04-25T03:43:24;11.60;89.10
68480;DHT22;55469;48.934;12.050;2023-04-25T03:45:50;11.60;89.20
68480;DHT22;55469;48.934;12.050;2023-04-25T03:48:16;11.60;89.20
68480;DHT22;55469;48.934;12.050;2023-04-25T03:50:42;11.60;89.20
68480;DHT22;55469;48.934;12.050;2023-04-25T03:53:07;11.60;89.20
68480;DHT22;55469;48.934;12.050;2023-04-25T03:55:33;11.60;89.30
68480;DHT22;55469;48.934;12.050;2023-04-25T03:57:59;11.60;89.30
68480;DHT22;55469;48.934;12.050;2023-04-25T04:00:25;11.60;89.30
68480;DHT22;55469;48.934;12.050;2023-04-25T04:02:51;11.50;89.30
68480;DHT22;55469;48.934;12.050;2023-04-25T04:05:16;11.60;89.20
68480;DHT22;55469;48.934;12.050;2023-04-25T04:07:42;11.50;89.30
68480;DHT22;55469;48.934;12.050;2023-04-25T04:10:11;11.50;89.20
68480;DHT22;55469;48.934;12.050;2023-04-25T04:12:37;11.50;89.30
68480;DHT22;55469;48.934;12.050;2023-04-25T04:15:04;11.50;89.30
68480;DHT22;55469;48.934;12.050;2023-04-25T04:17:31;11.50;89.40
68480;DHT22;55469;48.934;12.050;2023-04-25T04:19:57;11.50;89.30
68480;DHT22;55469;48.934;12.050;2023-04-25T04:22:23;11.50;89.40
68480;DHT22;55469;48.934;12.050;2023-04-25T04:24:49;11.50;89.30
68480;DHT22;55469;48.934;12.050;2023-04-25T04:27:19;11.50;89.40
68480;DHT22;55469;48.934;12.050;2023-04-25T04:29:45;11.50;89.50
68480;DHT22;55469;48.934;12.050;2023-04-25T04:32:12;11.50;89.40
68480;DHT22;55469;48.934;12.050;2023-04-25T04:34:38;11.50;89.40
68480;DHT22;55469;48.934;12.050;2023-04-25T04:37:05;11.40;89.30
68480;DHT22;55469;48.934;12.050;2023-04-25T04:39:32;11.40;89.30
68480;DHT22;55469;48.934;12.050;2023-04-25T04:42:01;11.40;89.30
68480;DHT22;55469;48.934;12.050;2023-04-25T04:44:29;11.40;89.30
68480;DHT22;55469;48.934;12.050;2023-04-25T04:46:58;11.40;89.30
68480;DHT22;55469;48.934;12.050;2023-04-25T04:49:24;11.40;89.30
68480;DHT22;55469;48.934;12.050;2023-04-25T04:51:50;11.40;89.20
68480;DHT22;55469;48.934;12.050;2023-04-25T04:54:16;11.40;89.20
68480;DHT22;55469;48.934;12.050;2023-04-25T04:56:42;11.40;89.30
68480;DHT22;55469;48.934;12.050;2023-04-25T04:59:07;11.40;89.30
68480;DHT22;55469;48.934;12.050;2023-04-25T05:01:34;11.40;89.20
68480;DHT22;55469;48.934;12.050;2023-04-25T05:04:02;11.40;89.20
68480;DHT22;55469;48.934;12.050;2023-04-25T05:06:29;11.40;89.20
68480;DHT22;55469;48.934;12.050;2023-04-25T05:08:55;11.40;89.30
68480;DHT22;55469;48.934;12.050;2023-04-25T05:11:22;11.30;89.20
68480;DHT22;55469;48.934;12.050;2023-04-25T05:13:50;11.30;89.20
68480;DHT22;55469;48.934;12.050;2023-04-25T05:16:17;11.30;89.30
68480;DHT22;55469;48.934;12.050;2023-04-25T05:18:42;11.30;89.20
68480;DHT22;55469;48.934;12.050;2023-04-25T05:21:08;11.30;89.20
68480;DHT22;55469;48.934;12.050;2023-04-25T05:23:34;11.30;89.20
68480;DHT22;55469;48.934;12.050;2023-04-25T05:25:59;11.30;89.20
68480;DHT22;55469;48.934;12.050;2023-04-25T05:28:25;11.30;89.20
68480;DHT22;55469;48.934;12.050;2023-04-25T05:30:51;11.30;89.10
68480;DHT22;55469;48.934;12.050;2023-04-25T05:33:17;11.30;89.10
68480;DHT22;55469;48.934;12.050;2023-04-25T05:35:43;11.30;89.10
68480;DHT22;55469;48.934;12.050;2023-04-25T05:38:09;11.30;88.90
68480;DHT22;55469;48.934;12.050;2023-04-25T05:40:35;11.30;88.90
68480;DHT22;55469;48.934;12.050;2023-04-25T05:43:01;11.30;88.80
68480;DHT22;55469;48.934;12.050;2023-04-25T05:45:26;11.30;88.90
68480;DHT22;55469;48.934;12.050;2023-04-25T05:47:52;11.40;88.80
68480;DHT22;55469;48.934;12.050;2023-04-25T05:50:18;11.40;88.90
68480;DHT22;55469;48.934;12.050;2023-04-25T05:52:43;11.40;88.70
68480;DHT22;55469;48.934;12.050;2023-04-25T05:55:11;11.40;88.70
68480;DHT22;55469;48.934;12.050;2023-04-25T05:57:36;11.40;88.50
68480;DHT22;55469;48.934;12.050;2023-04-25T06:00:03;11.40;88.20
68480;DHT22;55469;48.934;12.050;2023-04-25T06:02:34;11.50;88.30
68480;DHT22;55469;48.934;12.050;2023-04-25T06:04:59;11.40;88.30
68480;DHT22;55469;48.934;12.050;2023-04-25T06:07:28;11.50;88.20
68480;DHT22;55469;48.934;12.050;2023-04-25T06:09:55;11.50;88.10
68480;DHT22;55469;48.934;12.050;2023-04-25T06:12:21;11.50;87.90
68480;DHT22;55469;48.934;12.050;2023-04-25T06:14:46;11.50;88.00
68480;DHT22;55469;48.934;12.050;2023-04-25T06:17:13;11.50;87.80
68480;DHT22;55469;48.934;12.050;2023-04-25T06:19:38;11.50;87.80
68480;DHT22;55469;48.934;12.050;2023-04-25T06:22:04;11.50;87.70
68480;DHT22;55469;48.934;12.050;2023-04-25T06:24:30;11.50;87.50
68480;DHT22;55469;48.934;12.050;2023-04-25T06:26:55;11.60;87.60
68480;DHT22;55469;48.934;12.050;2023-04-25T06:29:21;11.50;87.50
68480;DHT22;55469;48.934;12.050;2023-04-25T06:31:47;11.50;87.40
68480;DHT22;55469;48.934;12.050;2023-04-25T06:34:13;11.60;87.30
68480;DHT22;55469;48.934;12.050;2023-04-25T06:36:38;11.60;87.30
68480;DHT22;55469;48.934;12.050;2023-04-25T06:39:04;11.60;87.70
68480;DHT22;55469;48.934;12.050;2023-04-25T06:41:30;11.50;87.30
68480;DHT22;55469;48.934;12.050;2023-04-25T06:43:55;11.60;87.20
68480;DHT22;55469;48.934;12.050;2023-04-25T06:46:21;11.60;87.30
68480;DHT22;55469;48.934;12.050;2023-04-25T06:48:47;11.60;87.40
68480;DHT22;55469;48.934;12.050;2023-04-25T06:51:12;11.60;87.40
68480;DHT22;55469;48.934;12.050;2023-04-25T06:53:39;11.60;87.30
68480;DHT22;55469;48.934;12.050;2023-04-25T06:56:05;11.60;87.50
68480;DHT22;55469;48.934;12.050;2023-04-25T06:58:31;11.60;87.30
68480;DHT22;55469;48.934;12.050;2023-04-25T07:00:57;11.60;87.20
68480;DHT22;55469;48.934;12.050;2023-04-25T07:03:23;11.60;87.30
68480;DHT22;55469;48.934;12.050;2023-04-25T07:05:49;11.60;87.30
68480;DHT22;55469;48.934;12.050;2023-04-25T07:08:16;11.60;87.00
68480;DHT22;55469;48.934;12.050;2023-04-25T07:10:42;11.60;86.80
68480;DHT22;55469;48.934;12.050;2023-04-25T07:13:08;11.60;86.90
68480;DHT22;55469;48.934;12.050;2023-04-25T07:15:34;11.60;86.90
68480;DHT22;55469;48.934;12.050;2023-04-25T07:18:00;11.60;87.00
68480;DHT22;55469;48.934;12.050;2023-04-25T07:20:25;11.60;87.00
68480;DHT22;55469;48.934;12.050;2023-04-25T07:22:52;11.60;86.90
68480;DHT22;55469;48.934;12.050;2023-04-25T07:25:19;11.60;86.70
68480;DHT22;55469;48.934;12.050;2023-04-25T07:27:45;11.70;86.70
68480;DHT22;55469;48.934;12.050;2023-04-25T07:30:11;11.70;86.50
68480;DHT22;55469;48.934;12.050;2023-04-25T07:32:38;11.70;86.50
68480;DHT22;55469;48.934;12.050;2023-04-25T07:35:05;11.70;86.40
68480;DHT22;55469;48.934;12.050;2023-04-25T07:37:32;11.70;86.40
68480;DHT22;55469;48.934;12.050;2023-04-25T07:39:59;11.80;86.30
68480;DHT22;55469;48.934;12.050;2023-04-25T07:42:24;11.70;86.30
68480;DHT22;55469;48.934;12.050;2023-04-25T07:44:50;11.80;86.30
68480;DHT22;55469;48.934;12.050;2023-04-25T07:47:17;11.70;86.40
68480;DHT22;55469;48.934;12.050;2023-04-25T07:49:44;11.70;86.30
68480;DHT22;55469;48.934;12.050;2023-04-25T07:52:11;11.70;86.30
68480;DHT22;55469;48.934;12.050;2023-04-25T07:54:36;11.70;86.40
68480;DHT22;55469;48.934;12.050;2023-04-25T07:57:02;11.70;86.40
68480;DHT22;55469;48.934;12.050;2023-04-25T07:59:28;11.70;86.50
68480;DHT22;55469;48.934;12.050;2023-04-25T08:01:53;11.70;86.40
68480;DHT22;55469;48.934;12.050;2023-04-25T08:04:19;11.70;86.40
68480;DHT22;55469;48.934;12.050;2023-04-25T08:06:45;11.70;86.50
68480;DHT22;55469;48.934;12.050;2023-04-25T08:09:11;11.80;86.50
68480;DHT22;55469;48.934;12.050;2023-04-25T08:11:37;11.80;86.50
68480;DHT22;55469;48.934;12.050;2023-04-25T08:14:03;11.80;86.20
68480;DHT22;55469;48.934;12.050;2023-04-25T08:16:29;11.80;86.20
68480;DHT22;55469;48.934;12.050;2023-04-25T08:18:55;11.80;86.20
68480;DHT22;55469;48.934;12.050;2023-04-25T08:21:21;11.90;86.10
68480;DHT22;55469;48.934;12.050;2023-04-25T08:23:46;11.90;85.90
68480;DHT22;55469;48.934;12.050;2023-04-25T08:26:12;12.00;85.90
68480;DHT22;55469;48.934;12.050;2023-04-25T08:28:38;11.90;85.70
68480;DHT22;55469;48.934;12.050;2023-04-25T08:31:04;12.00;85.70
68480;DHT22;55469;48.934;12.050;2023-04-25T08:33:29;12.10;85.60
68480;DHT22;55469;48.934;12.050;2023-04-25T08:35:55;12.10;85.40
68480;DHT22;55469;48.934;12.050;2023-04-25T08:38:21;12.10;85.40
68480;DHT22;55469;48.934;12.050;2023-04-25T08:40:49;12.10;85.30
68480;DHT22;55469;48.934;12.050;2023-04-25T08:43:19;12.20;85.10
68480;DHT22;55469;48.934;12.050;2023-04-25T08:45:46;12.20;84.90
68480;DHT22;55469;48.934;12.050;2023-04-25T08:48:14;12.30;85.00
68480;DHT22;55469;48.934;12.050;2023-04-25T08:50:54;12.20;85.00
68480;DHT22;55469;48.934;12.050;2023-04-25T08:53:29;12.20;85.00
68480;DHT22;55469;48.934;12.050;2023-04-25T08:55:59;12.20;85.30
68480;DHT22;55469;48.934;12.050;2023-04-25T08:58:27;12.20;86.20
68480;DHT22;55469;48.934;12.050;2023-04-25T09:00:53;12.20;85.20
68480;DHT22;55469;48.934;12.050;2023-04-25T09:03:19;12.20;85.20
68480;DHT22;55469;48.934;12.050;2023-04-25T09:05:45;12.30;85.10
68480;DHT22;55469;48.934;12.050;2023-04-25T09:08:11;12.40;85.00
68480;DHT22;55469;48.934;12.050;2023-04-25T09:10:37;12.40;84.60
68480;DHT22;55469;48.934;12.050;2023-04-25T09:15:52;12.40;85.00
68480;DHT22;55469;48.934;12.050;2023-04-25T09:20:57;12.40;84.50
68480;DHT22;55469;48.934;12.050;2023-04-25T09:23:43;12.40;85.40
68480;DHT22;55469;48.934;12.050;2023-04-25T09:26:10;12.40;84.60
68480;DHT22;55469;48.934;12.050;2023-04-25T09:28:39;12.30;84.80
68480;DHT22;55469;48.934;12.050;2023-04-25T09:31:09;12.30;84.90
68480;DHT22;55469;48.934;12.050;2023-04-25T09:33:37;12.30;84.90
68480;DHT22;55469;48.934;12.050;2023-04-25T09:36:08;12.30;85.10
68480;DHT22;55469;48.934;12.050;2023-04-25T09:38:44;12.40;85.20
68480;DHT22;55469;48.934;12.050;2023-04-25T09:41:11;12.40;85.10
68480;DHT22;55469;48.934;12.050;2023-04-25T09:43:38;12.30;85.20
68480;DHT22;55469;48.934;12.050;2023-04-25T09:46:09;12.30;85.20
68480;DHT22;55469;48.934;12.050;2023-04-25T09:48:36;12.40;85.30
68480;DHT22;55469;48.934;12.050;2023-04-25T09:51:13;12.40;85.20
68480;DHT22;55469;48.934;12.050;2023-04-25T09:53:44;12.50;84.90
68480;DHT22;55469;48.934;12.050;2023-04-25T09:56:12;12.60;84.80
68480;DHT22;55469;48.934;12.050;2023-04-25T09:58:42;12.60;84.80
68480;DHT22;55469;48.934;12.050;2023-04-25T10:01:10;12.60;84.80
68480;DHT22;55469;48.934;12.050;2023-04-25T10:03:39;12.60;85.20
68480;DHT22;55469;48.934;12.050;2023-04-25T10:06:12;12.50;85.00
68480;DHT22;55469;48.934;12.050;2023-04-25T10:08:40;12.50;85.10
68480;DHT22;55469;48.934;12.050;2023-04-25T10:11:08;12.50;85.30
68480;DHT22;55469;48.934;12.050;2023-04-25T10:13:35;12.50;85.20
68480;DHT22;55469;48.934;12.050;2023-04-25T10:16:03;12.60;85.00
68480;DHT22;55469;48.934;12.050;2023-04-25T10:18:31;12.60;84.70
68480;DHT22;55469;48.934;12.050;2023-04-25T10:21:03;12.60;84.70
68480;DHT22;55469;48.934;12.050;2023-04-25T10:23:31;12.60;84.50
68480;DHT22;55469;48.934;12.050;2023-04-25T10:25:57;12.70;84.20
68480;DHT22;55469;48.934;12.050;2023-04-25T10:28:24;12.70;83.90
68480;DHT22;55469;48.934;12.050;2023-04-25T10:31:07;12.70;83.90
68480;DHT22;55469;48.934;12.050;2023-04-25T10:33:34;12.80;83.70
68480;DHT22;55469;48.934;12.050;2023-04-25T10:36:17;12.80;83.90
68480;DHT22;55469;48.934;12.050;2023-04-25T10:38:45;12.80;83.60
68480;DHT22;55469;48.934;12.050;2023-04-25T10:41:12;12.80;83.90
68480;DHT22;55469;48.934;12.050;2023-04-25T10:43:43;12.70;83.60
68480;DHT22;55469;48.934;12.050;2023-04-25T10:46:23;12.70;83.80
68480;DHT22;55469;48.934;12.050;2023-04-25T10:48:55;12.70;83.80
68480;DHT22;55469;48.934;12.050;2023-04-25T10:51:32;12.80;83.50
68480;DHT22;55469;48.934;12.050;2023-04-25T10:56:30;12.80;83.60
68480;DHT22;55469;48.934;12.050;2023-04-25T10:59:07;12.80;83.40
68480;DHT22;55469;48.934;12.050;2023-04-25T11:01:37;12.80;83.40
68480;DHT22;55469;48.934;12.050;2023-04-25T11:04:04;12.70;83.30
68480;DHT22;55469;48.934;12.050;2023-04-25T11:09:38;12.80;82.90
68480;DHT22;55469;48.934;12.050;2023-04-25T11:12:04;12.80;83.20
68480;DHT22;55469;48.934;12.050;2023-04-25T11:14:32;12.80;83.20
68480;DHT22;55469;48.934;12.050;2023-04-25T11:16:58;12.80;83.10
68480;DHT22;55469;48.934;12.050;2023-04-25T11:19:25;12.90;83.10
68480;DHT22;55469;48.934;12.050;2023-04-25T11:21:56;12.80;83.10
68480;DHT22;55469;48.934;12.050;2023-04-25T11:24:32;12.80;83.00
68480;DHT22;55469;48.934;12.050;2023-04-25T11:27:00;12.90;82.70
68480;DHT22;55469;48.934;12.050;2023-04-25T11:29:30;13.00;82.50
68480;DHT22;55469;48.934;12.050;2023-04-25T11:31:57;13.00;82.40
68480;DHT22;55469;48.934;12.050;2023-04-25T11:34:23;13.00;82.30
68480;DHT22;55469;48.934;12.050;2023-04-25T11:36:50;13.00;82.10
68480;DHT22;55469;48.934;12.050;2023-04-25T11:39:18;13.10;82.20
68480;DHT22;55469;48.934;12.050;2023-04-25T11:41:44;13.00;82.00
68480;DHT22;55469;48.934;12.050;2023-04-25T11:44:10;13.00;82.10
68480;DHT22;55469;48.934;12.050;2023-04-25T11:46:36;13.10;82.10
68480;DHT22;55469;48.934;12.050;2023-04-25T11:49:02;13.10;81.70
68480;DHT22;55469;48.934;12.050;2023-04-25T11:51:30;13.20;81.40
68480;DHT22;55469;48.934;12.050;2023-04-25T11:53:57;13.30;81.20
68480;DHT22;55469;48.934;12.050;2023-04-25T11:56:22;13.30;81.10
68480;DHT22;55469;48.934;12.050;2023-04-25T11:59:02;13.30;80.70
68480;DHT22;55469;48.934;12.050;2023-04-25T12:01:30;13.40;80.50
68480;DHT22;55469;48.934;12.050;2023-04-25T12:03:57;13.30;80.50
68480;DHT22;55469;48.934;12.050;2023-04-25T12:06:29;13.30;80.50
68480;DHT22;55469;48.934;12.050;2023-04-25T12:09:04;13.30;80.30
68480;DHT22;55469;48.934;12.050;2023-04-25T12:11:44;13.40;80.10
68480;DHT22;55469;48.934;12.050;2023-04-25T12:14:11;13.40;79.60
68480;DHT22;55469;48.934;12.050;2023-04-25T12:16:45;13.50;79.20
68480;DHT22;55469;48.934;12.050;2023-04-25T12:19:15;13.60;78.90
68480;DHT22;55469;48.934;12.050;2023-04-25T12:21:42;13.60;78.90
68480;DHT22;55469;48.934;12.050;2023-04-25T12:24:13;13.60;79.00
68480;DHT22;55469;48.934;12.050;2023-04-25T12:29:27;13.50;79.00
68480;DHT22;55469;48.934;12.050;2023-04-25T12:31:55;13.50;79.00
68480;DHT22;55469;48.934;12.050;2023-04-25T12:34:21;13.50;79.10
68480;DHT22;55469;48.934;12.050;2023-04-25T12:36:48;13.50;78.80
68480;DHT22;55469;48.934;12.050;2023-04-25T12:39:17;13.60;78.70
68480;DHT22;55469;48.934;12.050;2023-04-25T12:41:47;13.60;79.60
68480;DHT22;55469;48.934;12.050;2023-04-25T12:44:14;13.50;78.80
68480;DHT22;55469;48.934;12.050;2023-04-25T12:46:40;13.50;78.80
68480;DHT22;55469;48.934;12.050;2023-04-25T12:49:07;13.50;79.80
68480;DHT22;55469;48.934;12.050;2023-04-25T12:51:36;13.50;78.50
68480;DHT22;55469;48.934;12.050;2023-04-25T12:54:04;13.60;78.40
68480;DHT22;55469;48.934;12.050;2023-04-25T12:56:31;13.60;78.30
68480;DHT22;55469;48.934;12.050;2023-04-25T12:58:57;13.60;77.70
68480;DHT22;55469;48.934;12.050;2023-04-25T13:01:24;13.60;77.30
68480;DHT22;55469;48.934;12.050;2023-04-25T13:03:50;13.60;77.30
68480;DHT22;55469;48.934;12.050;2023-04-25T13:06:18;13.70;77.10
68480;DHT22;55469;48.934;12.050;2023-04-25T13:08:45;13.60;78.10
68480;DHT22;55469;48.934;12.050;2023-04-25T13:11:11;13.60;77.30
68480;DHT22;55469;48.934;12.050;2023-04-25T13:13:37;13.60;77.50
68480;DHT22;55469;48.934;12.050;2023-04-25T13:16:04;13.70;77.40
68480;DHT22;55469;48.934;12.050;2023-04-25T13:18:31;13.70;77.30
68480;DHT22;55469;48.934;12.050;2023-04-25T13:20:59;13.70;77.10
68480;DHT22;55469;48.934;12.050;2023-04-25T13:23:27;13.70;77.10
68480;DHT22;55469;48.934;12.050;2023-04-25T13:25:54;13.70;77.10
68480;DHT22;55469;48.934;12.050;2023-04-25T13:28:20;13.70;77.40
68480;DHT22;55469;48.934;12.050;2023-04-25T13:30:47;13.60;77.30
68480;DHT22;55469;48.934;12.050;2023-04-25T13:33:14;13.60;77.60
68480;DHT22;55469;48.934;12.050;2023-04-25T13:35:40;13.60;77.50
68480;DHT22;55469;48.934;12.050;2023-04-25T13:38:06;13.60;77.50
68480;DHT22;55469;48.934;12.050;2023-04-25T13:40:32;13.60;77.30
68480;DHT22;55469;48.934;12.050;2023-04-25T13:42:58;13.60;77.30
68480;DHT22;55469;48.934;12.050;2023-04-25T13:45:24;13.60;77.30
68480;DHT22;55469;48.934;12.050;2023-04-25T13:47:50;13.60;76.90
68480;DHT22;55469;48.934;12.050;2023-04-25T13:50:16;13.60;77.00
68480;DHT22;55469;48.934;12.050;2023-04-25T13:52:42;13.60;76.80
68480;DHT22;55469;48.934;12.050;2023-04-25T13:55:08;13.60;76.90
68480;DHT22;55469;48.934;12.050;2023-04-25T13:57:35;13.70;76.70
68480;DHT22;55469;48.934;12.050;2023-04-25T14:00:01;13.70;76.40
68480;DHT22;55469;48.934;12.050;2023-04-25T14:02:37;13.80;76.40
68480;DHT22;55469;48.934;12.050;2023-04-25T14:05:06;13.90;76.20
68480;DHT22;55469;48.934;12.050;2023-04-25T14:07:36;13.90;76.00
68480;DHT22;55469;48.934;12.050;2023-04-25T14:10:03;13.90;76.10
68480;DHT22;55469;48.934;12.050;2023-04-25T14:12:30;13.90;76.30
68480;DHT22;55469;48.934;12.050;2023-04-25T14:14:56;13.90;76.50
68480;DHT22;55469;48.934;12.050;2023-04-25T14:17:22;14.00;76.60
68480;DHT22;55469;48.934;12.050;2023-04-25T14:19:49;14.00;76.20
68480;DHT22;55469;48.934;12.050;2023-04-25T14:22:15;14.00;76.30
68480;DHT22;55469;48.934;12.050;2023-04-25T14:24:41;14.00;76.70
68480;DHT22;55469;48.934;12.050;2023-04-25T14:27:07;14.00;76.90
68480;DHT22;55469;48.934;12.050;2023-04-25T14:29:33;13.90;76.90
68480;DHT22;55469;48.934;12.050;2023-04-25T14:31:59;14.00;76.80
68480;DHT22;55469;48.934;12.050;2023-04-25T14:34:25;14.00;77.00
68480;DHT22;55469;48.934;12.050;2023-04-25T14:36:51;14.00;76.90
68480;DHT22;55469;48.934;12.050;2023-04-25T14:39:18;14.00;76.70
68480;DHT22;55469;48.934;12.050;2023-04-25T14:41:44;14.10;76.60
68480;DHT22;55469;48.934;12.050;2023-04-25T14:44:10;14.10;76.30
68480;DHT22;55469;48.934;12.050;2023-04-25T14:46:36;14.10;76.30
68480;DHT22;55469;48.934;12.050;2023-04-25T14:49:02;14.00;76.30
68480;DHT22;55469;48.934;12.050;2023-04-25T14:51:28;14.00;76.20
68480;DHT22;55469;48.934;12.050;2023-04-25T14:53:55;14.00;76.30
68480;DHT22;55469;48.934;12.050;2023-04-25T14:56:21;13.90;76.40
68480;DHT22;55469;48.934;12.050;2023-04-25T14:58:47;13.90;76.40
68480;DHT22;55469;48.934;12.050;2023-04-25T15:01:13;13.80;76.60
68480;DHT22;55469;48.934;12.050;2023-04-25T15:03:42;13.80;76.40
68480;DHT22;55469;48.934;12.050;2023-04-25T15:06:08;13.80;76.20
68480;DHT22;55469;48.934;12.050;2023-04-25T15:08:34;13.80;76.20
68480;DHT22;55469;48.934;12.050;2023-04-25T15:11:00;13.80;76.00
68480;DHT22;55469;48.934;12.050;2023-04-25T15:13:26;13.90;75.90
68480;DHT22;55469;48.934;12.050;2023-04-25T15:15:52;13.90;75.80
68480;DHT22;55469;48.934;12.050;2023-04-25T15:18:21;13.90;75.70
68480;DHT22;55469;48.934;12.050;2023-04-25T15:20:51;13.90;75.90
68480;DHT22;55469;48.934;12.050;2023-04-25T15:23:18;13.90;76.00
68480;DHT22;55469;48.934;12.050;2023-04-25T15:25:45;14.00;76.00
68480;DHT22;55469;48.934;12.050;2023-04-25T15:28:11;14.00;75.80